sensor_id;sensor_type;location;lat;lon;timestamp;temperature;humidity
68648;SHT31;55632;51.962;16.116;2023-07-31T00:00:56;17.19;83.16
68648;SHT31;55632;51.962;16.116;2023-07-31T00:05:59;17.15;83.20
68648;SHT31;55632;51.962;16.116;2023-07-31T00:11:02;17.10;83.29
68648;SHT31;55632;51.962;16.116;2023-07-31T00:16:03;17.07;83.33
68648;SHT31;55632;51.962;16.116;2023-07-31T00:21:04;17.00;83.39
68648;SHT31;55632;51.962;16.116;2023-07-31T00:26:05;16.92;83.45
68648;SHT31;55632;51.962;16.116;2023-07-31T00:31:11;16.85;83.54
68648;SHT31;55632;51.962;16.116;2023-07-31T00:36:14;16.81;83.60
68648;SHT31;55632;51.962;16.116;2023-07-31T00:41:17;16.76;83.65
68648;SHT31;55632;51.962;16.116;2023-07-31T00:46:17;16.66;83.72
68648;SHT31;55632;51.962;16.116;2023-07-31T00:51:22;16.60;83.82
68648;SHT31;55632;51.962;16.116;2023-07-31T00:56:24;16.56;83.93
68648;SHT31;55632;51.962;16.116;2023-07-31T01:01:28;16.51;84.04
68648;SHT31;55632;51.962;16.116;2023-07-31T01:12:01;16.42;84.14
68648;SHT31;55632;51.962;16.116;2023-07-31T01:17:02;16.36;84.21
68648;SHT31;55632;51.962;16.116;2023-07-31T01:22:23;16.29;84.20
68648;SHT31;55632;51.962;16.116;2023-07-31T01:27:32;16.24;84.23
68648;SHT31;55632;51.962;16.116;2023-07-31T01:32:34;16.14;84.33
68648;SHT31;55632;51.962;16.116;2023-07-31T01:37:36;16.07;84.48
68648;SHT31;55632;51.962;16.116;2023-07-31T01:42:37;16.01;84.55
68648;SHT31;55632;51.962;16.116;2023-07-31T01:47:37;15.96;84.68
68648;SHT31;55632;51.962;16.116;2023-07-31T01:52:38;15.91;84.88
68648;SHT31;55632;51.962;16.116;2023-07-31T01:57:39;15.87;84.98
68648;SHT31;55632;51.962;16.116;2023-07-31T02:02:43;15.77;85.07
68648;SHT31;55632;51.962;16.116;2023-07-31T02:07:47;15.73;85.26
68648;SHT31;55632;51.962;16.116;2023-07-31T02:12:48;15.70;85.47
68648;SHT31;55632;51.962;16.116;2023-07-31T02:17:52;15.69;85.47
68648;SHT31;55632;51.962;16.116;2023-07-31T02:22:55;15.60;85.63
68648;SHT31;55632;51.962;16.116;2023-07-31T02:27:59;15.59;85.76
68648;SHT31;55632;51.962;16.116;2023-07-31T02:33:00;15.55;85.86
68648;SHT31;55632;51.962;16.116;2023-07-31T02:38:00;15.55;85.99
68648;SHT31;55632;51.962;16.116;2023-07-31T02:43:01;15.50;86.10
68648;SHT31;55632;51.962;16.116;2023-07-31T02:48:04;15.48;86.11
68648;SHT31;55632;51.962;16.116;2023-07-31T02:53:06;15.49;86.14
68648;SHT31;55632;51.962;16.116;2023-07-31T02:58:09;15.42;86.12
68648;SHT31;55632;51.962;16.116;2023-07-31T03:03:13;15.36;86.23
68648;SHT31;55632;51.962;16.116;2023-07-31T03:08:16;15.34;86.35
68648;SHT31;55632;51.962;16.116;2023-07-31T03:13:20;15.36;86.44
68648;SHT31;55632;51.962;16.116;2023-07-31T03:18:24;15.35;86.54
68648;SHT31;55632;51.962;16.116;2023-07-31T03:23:25;15.34;86.56
68648;SHT31;55632;51.962;16.116;2023-07-31T03:28:26;15.34;86.63
68648;SHT31;55632;51.962;16.116;2023-07-31T03:33:32;15.32;86.69
68648;SHT31;55632;51.962;16.116;2023-07-31T03:38:34;15.35;86.63
68648;SHT31;55632;51.962;16.116;2023-07-31T03:43:35;15.35;86.65
68648;SHT31;55632;51.962;16.116;2023-07-31T03:48:36;15.36;86.71
68648;SHT31;55632;51.962;16.116;2023-07-31T03:53:36;15.39;86.74
68648;SHT31;55632;51.962;16.116;2023-07-31T03:58:40;15.41;86.76
68648;SHT31;55632;51.962;16.116;2023-07-31T04:03:41;15.49;86.80
68648;SHT31;55632;51.962;16.116;2023-07-31T04:08:45;15.55;86.81
68648;SHT31;55632;51.962;16.116;2023-07-31T04:13:46;15.70;86.85
68648;SHT31;55632;51.962;16.116;2023-07-31T04:18:47;15.84;86.67
68648;SHT31;55632;51.962;16.116;2023-07-31T04:23:47;16.00;86.65
68648;SHT31;55632;51.962;16.116;2023-07-31T04:28:48;16.24;86.55
68648;SHT31;55632;51.962;16.116;2023-07-31T04:33:51;16.39;86.00
68648;SHT31;55632;51.962;16.116;2023-07-31T04:38:52;16.48;85.75
68648;SHT31;55632;51.962;16.116;2023-07-31T04:43:53;16.55;85.45
68648;SHT31;55632;51.962;16.116;2023-07-31T04:48:58;16.59;85.27
68648;SHT31;55632;51.962;16.116;2023-07-31T04:53:59;16.69;85.00
68648;SHT31;55632;51.962;16.116;2023-07-31T04:59:00;16.85;84.83
68648;SHT31;55632;51.962;16.116;2023-07-31T05:04:01;17.10;84.48
68648;SHT31;55632;51.962;16.116;2023-07-31T05:09:05;17.33;83.97
68648;SHT31;55632;51.962;16.116;2023-07-31T05:14:09;17.67;83.30
68648;SHT31;55632;51.962;16.116;2023-07-31T05:19:10;17.97;82.23
68648;SHT31;55632;51.962;16.116;2023-07-31T05:24:11;18.05;81.00
68648;SHT31;55632;51.962;16.116;2023-07-31T05:29:17;18.09;80.54
68648;SHT31;55632;51.962;16.116;2023-07-31T05:34:18;18.16;80.07
68648;SHT31;55632;51.962;16.116;2023-07-31T05:39:24;18.24;79.02
68648;SHT31;55632;51.962;16.116;2023-07-31T05:44:25;18.28;78.37
68648;SHT31;55632;51.962;16.116;2023-07-31T05:49:25;18.37;78.18
68648;SHT31;55632;51.962;16.116;2023-07-31T05:54:28;18.47;77.74
68648;SHT31;55632;51.962;16.116;2023-07-31T05:59:29;18.56;76.84
68648;SHT31;55632;51.962;16.116;2023-07-31T06:04:36;18.54;76.12
68648;SHT31;55632;51.962;16.116;2023-07-31T06:09:41;18.63;76.28
68648;SHT31;55632;51.962;16.116;2023-07-31T06:14:43;18.73;75.54
68648;SHT31;55632;51.962;16.116;2023-07-31T06:19:44;18.81;75.12
68648;SHT31;55632;51.962;16.116;2023-07-31T06:24:44;18.92;74.89
68648;SHT31;55632;51.962;16.116;2023-07-31T06:29:45;19.02;74.14
68648;SHT31;55632;51.962;16.116;2023-07-31T06:34:48;19.16;73.51
68648;SHT31;55632;51.962;16.116;2023-07-31T06:39:49;19.29;73.24
68648;SHT31;55632;51.962;16.116;2023-07-31T06:44:50;19.37;72.79
68648;SHT31;55632;51.962;16.116;2023-07-31T06:49:51;19.39;72.20
68648;SHT31;55632;51.962;16.116;2023-07-31T06:55:18;19.45;71.68
68648;SHT31;55632;51.962;16.116;2023-07-31T07:00:23;19.51;71.56
68648;SHT31;55632;51.962;16.116;2023-07-31T07:05:24;19.50;71.65
68648;SHT31;55632;51.962;16.116;2023-07-31T07:10:25;19.47;72.01
68648;SHT31;55632;51.962;16.116;2023-07-31T07:15:25;19.47;72.09
68648;SHT31;55632;51.962;16.116;2023-07-31T07:20:26;19.46;72.21
68648;SHT31;55632;51.962;16.116;2023-07-31T07:25:27;19.49;72.11
68648;SHT31;55632;51.962;16.116;2023-07-31T07:30:28;19.50;72.12
68648;SHT31;55632;51.962;16.116;2023-07-31T07:35:29;19.53;72.26
68648;SHT31;55632;51.962;16.116;2023-07-31T07:40:30;19.60;72.43
68648;SHT31;55632;51.962;16.116;2023-07-31T07:45:30;19.61;72.08
68648;SHT31;55632;51.962;16.116;2023-07-31T07:50:35;19.56;71.37
68648;SHT31;55632;51.962;16.116;2023-07-31T07:55:38;19.50;71.55
68648;SHT31;55632;51.962;16.116;2023-07-31T08:00:39;19.53;71.60
68648;SHT31;55632;51.962;16.116;2023-07-31T08:05:39;19.57;71.30
68648;SHT31;55632;51.962;16.116;2023-07-31T08:10:40;19.61;71.03
68648;SHT31;55632;51.962;16.116;2023-07-31T08:15:43;19.58;71.49
68648;SHT31;55632;51.962;16.116;2023-07-31T08:20:45;19.63;71.53
68648;SHT31;55632;51.962;16.116;2023-07-31T08:25:46;19.61;71.69
68648;SHT31;55632;51.962;16.116;2023-07-31T08:30:51;19.68;71.91
68648;SHT31;55632;51.962;16.116;2023-07-31T08:35:52;19.77;71.46
68648;SHT31;55632;51.962;16.116;2023-07-31T08:40:56;19.77;71.56
68648;SHT31;55632;51.962;16.116;2023-07-31T08:45:59;19.73;71.38
68648;SHT31;55632;51.962;16.116;2023-07-31T08:51:00;19.64;71.96
68648;SHT31;55632;51.962;16.116;2023-07-31T08:56:02;19.58;72.37
68648;SHT31;55632;51.962;16.116;2023-07-31T09:01:07;19.47;73.13
68648;SHT31;55632;51.962;16.116;2023-07-31T09:06:11;19.40;73.62
68648;SHT31;55632;51.962;16.116;2023-07-31T09:11:13;19.27;74.54
68648;SHT31;55632;51.962;16.116;2023-07-31T09:16:16;19.15;75.47
68648;SHT31;55632;51.962;16.116;2023-07-31T09:21:17;19.08;76.30
68648;SHT31;55632;51.962;16.116;2023-07-31T09:26:35;19.09;77.20
68648;SHT31;55632;51.962;16.116;2023-07-31T09:31:41;19.08;77.60
68648;SHT31;55632;51.962;16.116;2023-07-31T09:36:47;19.01;77.97
68648;SHT31;55632;51.962;16.116;2023-07-31T09:41:55;18.88;78.72
68648;SHT31;55632;51.962;16.116;2023-07-31T09:46:56;18.78;79.53
68648;SHT31;55632;51.962;16.116;2023-07-31T09:52:00;18.73;79.84
68648;SHT31;55632;51.962;16.116;2023-07-31T09:57:02;18.67;80.25
68648;SHT31;55632;51.962;16.116;2023-07-31T10:02:15;18.63;80.70
68648;SHT31;55632;51.962;16.116;2023-07-31T10:07:22;18.71;81.32
68648;SHT31;55632;51.962;16.116;2023-07-31T10:12:26;18.80;81.43
68648;SHT31;55632;51.962;16.116;2023-07-31T10:17:30;18.87;81.64
68648;SHT31;55632;51.962;16.116;2023-07-31T10:22:32;18.98;81.69
68648;SHT31;55632;51.962;16.116;2023-07-31T10:27:36;19.11;81.49
68648;SHT31;55632;51.962;16.116;2023-07-31T10:32:40;19.47;81.91
68648;SHT31;55632;51.962;16.116;2023-07-31T10:37:42;19.86;80.61
68648;SHT31;55632;51.962;16.116;2023-07-31T10:42:57;20.13;79.30
68648;SHT31;55632;51.962;16.116;2023-07-31T10:48:16;20.30;78.51
68648;SHT31;55632;51.962;16.116;2023-07-31T10:53:24;20.47;77.57
68648;SHT31;55632;51.962;16.116;2023-07-31T10:58:28;20.50;76.80
68648;SHT31;55632;51.962;16.116;2023-07-31T11:08:45;20.60;75.96
68648;SHT31;55632;51.962;16.116;2023-07-31T11:13:50;20.87;75.18
68648;SHT31;55632;51.962;16.116;2023-07-31T11:18:53;20.99;74.60
68648;SHT31;55632;51.962;16.116;2023-07-31T11:24:01;21.05;73.99
68648;SHT31;55632;51.962;16.116;2023-07-31T11:29:13;21.20;73.67
68648;SHT31;55632;51.962;16.116;2023-07-31T11:34:17;21.40;73.63
68648;SHT31;55632;51.962;16.116;2023-07-31T11:39:21;21.54;72.82
68648;SHT31;55632;51.962;16.116;2023-07-31T11:44:22;21.65;72.42
68648;SHT31;55632;51.962;16.116;2023-07-31T11:49:26;21.92;71.95
68648;SHT31;55632;51.962;16.116;2023-07-31T11:54:26;22.12;70.74
68648;SHT31;55632;51.962;16.116;2023-07-31T11:59:30;22.16;70.34
68648;SHT31;55632;51.962;16.116;2023-07-31T12:04:34;22.48;70.20
68648;SHT31;55632;51.962;16.116;2023-07-31T12:09:34;22.72;68.82
68648;SHT31;55632;51.962;16.116;2023-07-31T12:14:41;22.79;67.18
68648;SHT31;55632;51.962;16.116;2023-07-31T12:19:43;22.79;66.75
68648;SHT31;55632;51.962;16.116;2023-07-31T12:24:44;23.07;66.96
68648;SHT31;55632;51.962;16.116;2023-07-31T12:29:46;23.61;66.09
68648;SHT31;55632;51.962;16.116;2023-07-31T12:34:48;24.09;64.62
68648;SHT31;55632;51.962;16.116;2023-07-31T12:39:49;24.28;62.47
68648;SHT31;55632;51.962;16.116;2023-07-31T12:44:50;24.06;61.03
68648;SHT31;55632;51.962;16.116;2023-07-31T12:49:54;23.90;60.33
68648;SHT31;55632;51.962;16.116;2023-07-31T12:54:55;23.92;59.71
68648;SHT31;55632;51.962;16.116;2023-07-31T12:59:56;24.09;59.72
68648;SHT31;55632;51.962;16.116;2023-07-31T13:05:02;23.98;58.93
68648;SHT31;55632;51.962;16.116;2023-07-31T13:10:07;23.83;59.64
68648;SHT31;55632;51.962;16.116;2023-07-31T13:15:09;23.83;57.90
68648;SHT31;55632;51.962;16.116;2023-07-31T13:20:11;23.88;57.06
68648;SHT31;55632;51.962;16.116;2023-07-31T13:25:13;23.85;56.91
68648;SHT31;55632;51.962;16.116;2023-07-31T13:30:17;23.81;56.61
68648;SHT31;55632;51.962;16.116;2023-07-31T13:35:17;23.82;56.81
68648;SHT31;55632;51.962;16.116;2023-07-31T13:40:18;24.00;55.69
68648;SHT31;55632;51.962;16.116;2023-07-31T13:45:20;24.09;55.00
68648;SHT31;55632;51.962;16.116;2023-07-31T13:50:23;24.08;55.16
68648;SHT31;55632;51.962;16.116;2023-07-31T13:55:28;24.08;55.34
68648;SHT31;55632;51.962;16.116;2023-07-31T14:00:31;24.26;55.88
68648;SHT31;55632;51.962;16.116;2023-07-31T14:05:32;24.26;55.68
68648;SHT31;55632;51.962;16.116;2023-07-31T14:10:47;24.27;55.55
68648;SHT31;55632;51.962;16.116;2023-07-31T14:15:51;24.57;55.86
68648;SHT31;55632;51.962;16.116;2023-07-31T14:20:52;24.80;55.61
68648;SHT31;55632;51.962;16.116;2023-07-31T14:25:53;24.96;54.77
68648;SHT31;55632;51.962;16.116;2023-07-31T14:30:54;24.92;54.51
68648;SHT31;55632;51.962;16.116;2023-07-31T14:35:55;24.79;54.42
68648;SHT31;55632;51.962;16.116;2023-07-31T14:40:56;24.88;54.72
68648;SHT31;55632;51.962;16.116;2023-07-31T14:45:59;25.05;53.84
68648;SHT31;55632;51.962;16.116;2023-07-31T14:51:00;24.86;54.14
68648;SHT31;55632;51.962;16.116;2023-07-31T14:56:01;24.69;54.19
68648;SHT31;55632;51.962;16.116;2023-07-31T15:01:04;24.80;54.20
68648;SHT31;55632;51.962;16.116;2023-07-31T15:06:05;24.85;54.20
68648;SHT31;55632;51.962;16.116;2023-07-31T15:11:10;24.76;53.74
68648;SHT31;55632;51.962;16.116;2023-07-31T15:16:11;24.64;53.80
68648;SHT31;55632;51.962;16.116;2023-07-31T15:21:12;24.55;53.22
68648;SHT31;55632;51.962;16.116;2023-07-31T15:26:15;24.68;53.00
68648;SHT31;55632;51.962;16.116;2023-07-31T15:31:22;24.61;52.40
68648;SHT31;55632;51.962;16.116;2023-07-31T15:36:23;24.44;52.25
68648;SHT31;55632;51.962;16.116;2023-07-31T15:41:26;24.34;52.46
68648;SHT31;55632;51.962;16.116;2023-07-31T15:46:27;24.30;52.83
68648;SHT31;55632;51.962;16.116;2023-07-31T15:51:28;24.36;53.18
68648;SHT31;55632;51.962;16.116;2023-07-31T15:56:29;24.45;52.34
68648;SHT31;55632;51.962;16.116;2023-07-31T16:01:30;24.60;52.44
68648;SHT31;55632;51.962;16.116;2023-07-31T16:06:31;24.50;52.40
68648;SHT31;55632;51.962;16.116;2023-07-31T16:11:32;24.44;52.66
68648;SHT31;55632;51.962;16.116;2023-07-31T16:16:33;24.38;52.53
68648;SHT31;55632;51.962;16.116;2023-07-31T16:21:33;24.30;53.00
68648;SHT31;55632;51.962;16.116;2023-07-31T16:26:34;24.31;53.44
68648;SHT31;55632;51.962;16.116;2023-07-31T16:31:40;24.36;53.26
68648;SHT31;55632;51.962;16.116;2023-07-31T16:36:44;24.34;52.85
68648;SHT31;55632;51.962;16.116;2023-07-31T16:41:48;24.21;53.03
68648;SHT31;55632;51.962;16.116;2023-07-31T16:46:52;24.10;53.50
68648;SHT31;55632;51.962;16.116;2023-07-31T16:51:58;24.05;53.97
68648;SHT31;55632;51.962;16.116;2023-07-31T16:57:01;23.93;54.12
68648;SHT31;55632;51.962;16.116;2023-07-31T17:02:05;23.83;54.39
68648;SHT31;55632;51.962;16.116;2023-07-31T17:07:07;23.74;54.78
68648;SHT31;55632;51.962;16.116;2023-07-31T17:12:14;23.61;55.15
68648;SHT31;55632;51.962;16.116;2023-07-31T17:17:15;23.51;55.75
68648;SHT31;55632;51.962;16.116;2023-07-31T17:22:16;23.34;56.08
68648;SHT31;55632;51.962;16.116;2023-07-31T17:27:17;23.24;56.43
68648;SHT31;55632;51.962;16.116;2023-07-31T17:32:18;23.13;56.87
68648;SHT31;55632;51.962;16.116;2023-07-31T17:37:21;23.02;57.19
68648;SHT31;55632;51.962;16.116;2023-07-31T17:42:24;22.94;57.76
68648;SHT31;55632;51.962;16.116;2023-07-31T17:47:28;22.78;58.07
68648;SHT31;55632;51.962;16.116;2023-07-31T17:52:34;22.69;58.56
68648;SHT31;55632;51.962;16.116;2023-07-31T17:57:37;22.60;58.98
68648;SHT31;55632;51.962;16.116;2023-07-31T18:02:40;22.53;59.53
68648;SHT31;55632;51.962;16.116;2023-07-31T18:07:41;22.41;60.05
68648;SHT31;55632;51.962;16.116;2023-07-31T18:12:42;22.37;60.35
68648;SHT31;55632;51.962;16.116;2023-07-31T18:17:46;22.32;60.80
68648;SHT31;55632;51.962;16.116;2023-07-31T18:22:47;22.23;61.14
68648;SHT31;55632;51.962;16.116;2023-07-31T18:27:50;22.16;61.40
68648;SHT31;55632;51.962;16.116;2023-07-31T18:32:51;22.10;61.55
68648;SHT31;55632;51.962;16.116;2023-07-31T18:37:55;22.02;61.70
68648;SHT31;55632;51.962;16.116;2023-07-31T18:42:55;21.93;61.89
68648;SHT31;55632;51.962;16.116;2023-07-31T18:47:57;21.82;62.15
68648;SHT31;55632;51.962;16.116;2023-07-31T18:52:58;21.75;62.44
68648;SHT31;55632;51.962;16.116;2023-07-31T18:57:59;21.65;62.70
68648;SHT31;55632;51.962;16.116;2023-07-31T19:03:00;21.55;63.16
68648;SHT31;55632;51.962;16.116;2023-07-31T19:08:01;21.46;63.45
68648;SHT31;55632;51.962;16.116;2023-07-31T19:13:08;21.40;63.85
68648;SHT31;55632;51.962;16.116;2023-07-31T19:18:09;21.36;64.05
68648;SHT31;55632;51.962;16.116;2023-07-31T19:23:10;21.30;64.40
68648;SHT31;55632;51.962;16.116;2023-07-31T19:28:10;21.27;64.73
68648;SHT31;55632;51.962;16.116;2023-07-31T19:33:12;21.20;65.04
68648;SHT31;55632;51.962;16.116;2023-07-31T19:38:14;21.16;65.40
68648;SHT31;55632;51.962;16.116;2023-07-31T19:43:16;21.12;65.69
68648;SHT31;55632;51.962;16.116;2023-07-31T19:48:17;21.10;65.92
68648;SHT31;55632;51.962;16.116;2023-07-31T19:53:19;21.07;66.13
68648;SHT31;55632;51.962;16.116;2023-07-31T19:58:21;21.06;66.27
68648;SHT31;55632;51.962;16.116;2023-07-31T20:03:22;21.07;66.25
68648;SHT31;55632;51.962;16.116;2023-07-31T20:08:23;21.07;66.04
68648;SHT31;55632;51.962;16.116;2023-07-31T20:13:24;21.06;65.83
68648;SHT31;55632;51.962;16.116;2023-07-31T20:18:25;21.07;65.85
68648;SHT31;55632;51.962;16.116;2023-07-31T20:23:26;21.10;66.20
68648;SHT31;55632;51.962;16.116;2023-07-31T20:28:27;21.13;65.98
68648;SHT31;55632;51.962;16.116;2023-07-31T20:33:28;21.09;65.92
68648;SHT31;55632;51.962;16.116;2023-07-31T20:38:29;21.10;66.08
68648;SHT31;55632;51.962;16.116;2023-07-31T20:43:30;21.07;66.11
68648;SHT31;55632;51.962;16.116;2023-07-31T20:48:31;21.05;66.14
68648;SHT31;55632;51.962;16.116;2023-07-31T20:53:34;21.06;66.35
68648;SHT31;55632;51.962;16.116;2023-07-31T20:58:35;21.00;66.49
68648;SHT31;55632;51.962;16.116;2023-07-31T21:03:38;20.96;66.83
68648;SHT31;55632;51.962;16.116;2023-07-31T21:08:39;20.92;66.77
68648;SHT31;55632;51.962;16.116;2023-07-31T21:13:40;20.87;66.74
68648;SHT31;55632;51.962;16.116;2023-07-31T21:18:41;20.82;66.64
68648;SHT31;55632;51.962;16.116;2023-07-31T21:23:42;20.84;66.29
68648;SHT31;55632;51.962;16.116;2023-07-31T21:28:42;20.85;66.12
68648;SHT31;55632;51.962;16.116;2023-07-31T21:33:43;20.85;66.10
68648;SHT31;55632;51.962;16.116;2023-07-31T21:38:44;20.87;66.06
68648;SHT31;55632;51.962;16.116;2023-07-31T21:43:45;20.82;66.05
68648;SHT31;55632;51.962;16.116;2023-07-31T21:48:46;20.82;66.00
68648;SHT31;55632;51.962;16.116;2023-07-31T21:53:47;20.80;66.02
68648;SHT31;55632;51.962;16.116;2023-07-31T21:58:48;20.80;65.98
68648;SHT31;55632;51.962;16.116;2023-07-31T22:03:49;20.77;65.94
68648;SHT31;55632;51.962;16.116;2023-07-31T22:08:50;20.71;66.07
68648;SHT31;55632;51.962;16.116;2023-07-31T22:13:51;20.70;66.32
68648;SHT31;55632;51.962;16.116;2023-07-31T22:18:52;20.64;66.46
68648;SHT31;55632;51.962;16.116;2023-07-31T22:23:53;20.57;66.45
68648;SHT31;55632;51.962;16.116;2023-07-31T22:28:53;20.50;66.80
68648;SHT31;55632;51.962;16.116;2023-07-31T22:33:54;20.44;67.09
68648;SHT31;55632;51.962;16.116;2023-07-31T22:38:55;20.40;67.00
68648;SHT31;55632;51.962;16.116;2023-07-31T22:43:56;20.37;66.95
68648;SHT31;55632;51.962;16.116;2023-07-31T22:48:57;20.37;67.01
68648;SHT31;55632;51.962;16.116;2023-07-31T22:53:58;20.33;67.11
68648;SHT31;55632;51.962;16.116;2023-07-31T22:58:59;20.33;67.27
68648;SHT31;55632;51.962;16.116;2023-07-31T23:04:00;20.26;67.39
68648;SHT31;55632;51.962;16.116;2023-07-31T23:09:00;20.25;67.52
68648;SHT31;55632;51.962;16.116;2023-07-31T23:14:01;20.25;67.57
68648;SHT31;55632;51.962;16.116;2023-07-31T23:19:02;20.19;67.69
68648;SHT31;55632;51.962;16.116;2023-07-31T23:24:03;20.20;67.77
68648;SHT31;55632;51.962;16.116;2023-07-31T23:29:04;20.18;67.74
68648;SHT31;55632;51.962;16.116;2023-07-31T23:34:04;20.15;67.71
68648;SHT31;55632;51.962;16.116;2023-07-31T23:39:08;20.16;67.72
68648;SHT31;55632;51.962;16.116;2023-07-31T23:44:10;20.15;67.76
68648;SHT31;55632;51.962;16.116;2023-07-31T23:49:11;20.15;67.88
68648;SHT31;55632;51.962;16.116;2023-07-31T23:54:12;20.12;67.90
68648;SHT31;55632;51.962;16.116;2023-07-31T23:59:13;20.06;67.92
